sensor_id;sensor_type;location;lat;lon;timestamp;temperature;humidity
47660;DHT22;33403;43.608;1.458;2023-04-25T00:00:44;14.20;99.90
47660;DHT22;33403;43.608;1.458;2023-04-25T00:03:10;14.20;99.90
47660;DHT22;33403;43.608;1.458;2023-04-25T00:05:36;14.20;99.90
47660;DHT22;33403;43.608;1.458;2023-04-25T00:08:03;14.20;99.90
47660;DHT22;33403;43.608;1.458;2023-04-25T00:10:29;14.20;99.90
47660;DHT22;33403;43.608;1.458;2023-04-25T00:12:54;14.20;99.90
47660;DHT22;33403;43.608;1.458;2023-04-25T00:15:20;14.20;99.90
47660;DHT22;33403;43.608;1.458;2023-04-25T00:17:46;14.20;99.90
47660;DHT22;33403;43.608;1.458;2023-04-25T00:20:12;14.20;99.90
47660;DHT22;33403;43.608;1.458;2023-04-25T00:22:38;14.20;99.90
47660;DHT22;33403;43.608;1.458;2023-04-25T00:25:05;14.20;99.90
47660;DHT22;33403;43.608;1.458;2023-04-25T00:27:31;14.20;99.90
47660;DHT22;33403;43.608;1.458;2023-04-25T00:29:57;14.20;99.90
47660;DHT22;33403;43.608;1.458;2023-04-25T00:32:23;14.20;99.90
47660;DHT22;33403;43.608;1.458;2023-04-25T00:34:48;14.20;99.90
47660;DHT22;33403;43.608;1.458;2023-04-25T00:37:14;14.20;99.90
47660;DHT22;33403;43.608;1.458;2023-04-25T00:39:40;14.20;99.90
47660;DHT22;33403;43.608;1.458;2023-04-25T00:42:06;14.20;99.90
47660;DHT22;33403;43.608;1.458;2023-04-25T00:44:32;14.30;99.90
47660;DHT22;33403;43.608;1.458;2023-04-25T00:47:00;14.30;99.90
47660;DHT22;33403;43.608;1.458;2023-04-25T00:49:27;14.30;99.90
47660;DHT22;33403;43.608;1.458;2023-04-25T00:51:52;14.30;99.90
47660;DHT22;33403;43.608;1.458;2023-04-25T00:54:18;14.30;99.90
47660;DHT22;33403;43.608;1.458;2023-04-25T00:56:45;14.30;99.90
47660;DHT22;33403;43.608;1.458;2023-04-25T00:59:11;14.30;99.90
47660;DHT22;33403;43.608;1.458;2023-04-25T01:01:38;14.20;99.90
47660;DHT22;33403;43.608;1.458;2023-04-25T01:04:06;14.20;99.90
47660;DHT22;33403;43.608;1.458;2023-04-25T01:06:32;14.20;99.90
47660;DHT22;33403;43.608;1.458;2023-04-25T01:08:59;14.20;99.90
47660;DHT22;33403;43.608;1.458;2023-04-25T01:11:24;14.20;99.90
47660;DHT22;33403;43.608;1.458;2023-04-25T01:13:50;14.20;99.90
47660;DHT22;33403;43.608;1.458;2023-04-25T01:16:16;14.20;99.90
47660;DHT22;33403;43.608;1.458;2023-04-25T01:18:42;14.20;99.90
47660;DHT22;33403;43.608;1.458;2023-04-25T01:21:09;14.20;99.90
47660;DHT22;33403;43.608;1.458;2023-04-25T01:23:37;14.20;99.90
47660;DHT22;33403;43.608;1.458;2023-04-25T01:26:03;14.20;99.90
47660;DHT22;33403;43.608;1.458;2023-04-25T01:28:29;14.20;99.90
47660;DHT22;33403;43.608;1.458;2023-04-25T01:30:56;14.20;99.90
47660;DHT22;33403;43.608;1.458;2023-04-25T01:33:22;14.20;99.90
47660;DHT22;33403;43.608;1.458;2023-04-25T01:35:48;14.20;99.90
47660;DHT22;33403;43.608;1.458;2023-04-25T01:38:14;14.20;99.90
47660;DHT22;33403;43.608;1.458;2023-04-25T01:40:40;14.10;99.90
47660;DHT22;33403;43.608;1.458;2023-04-25T01:43:08;14.10;99.90
47660;DHT22;33403;43.608;1.458;2023-04-25T01:45:37;14.10;99.90
47660;DHT22;33403;43.608;1.458;2023-04-25T01:48:05;14.10;99.90
47660;DHT22;33403;43.608;1.458;2023-04-25T01:50:30;14.10;99.90
47660;DHT22;33403;43.608;1.458;2023-04-25T01:52:56;14.10;99.90
47660;DHT22;33403;43.608;1.458;2023-04-25T01:55:22;14.20;99.90
47660;DHT22;33403;43.608;1.458;2023-04-25T01:57:48;14.10;99.90
47660;DHT22;33403;43.608;1.458;2023-04-25T02:00:13;14.10;99.90
47660;DHT22;33403;43.608;1.458;2023-04-25T02:02:39;14.10;99.90
47660;DHT22;33403;43.608;1.458;2023-04-25T02:05:05;14.10;99.90
47660;DHT22;33403;43.608;1.458;2023-04-25T02:07:32;14.10;99.90
47660;DHT22;33403;43.608;1.458;2023-04-25T02:09:57;14.10;99.90
47660;DHT22;33403;43.608;1.458;2023-04-25T02:12:23;14.10;99.90
47660;DHT22;33403;43.608;1.458;2023-04-25T02:14:49;14.10;99.90
47660;DHT22;33403;43.608;1.458;2023-04-25T02:17:15;14.10;99.90
47660;DHT22;33403;43.608;1.458;2023-04-25T02:19:41;14.10;99.90
47660;DHT22;33403;43.608;1.458;2023-04-25T02:22:07;14.10;99.90
47660;DHT22;33403;43.608;1.458;2023-04-25T02:24:32;14.10;99.90
47660;DHT22;33403;43.608;1.458;2023-04-25T02:26:59;14.10;99.90
47660;DHT22;33403;43.608;1.458;2023-04-25T02:29:25;14.10;99.90
47660;DHT22;33403;43.608;1.458;2023-04-25T02:31:50;14.10;99.90
47660;DHT22;33403;43.608;1.458;2023-04-25T02:34:16;14.10;99.90
47660;DHT22;33403;43.608;1.458;2023-04-25T02:36:41;14.10;99.90
47660;DHT22;33403;43.608;1.458;2023-04-25T02:39:07;14.10;99.90
47660;DHT22;33403;43.608;1.458;2023-04-25T02:41:33;14.10;99.90
47660;DHT22;33403;43.608;1.458;2023-04-25T02:43:58;14.10;99.90
47660;DHT22;33403;43.608;1.458;2023-04-25T02:46:24;14.10;99.90
47660;DHT22;33403;43.608;1.458;2023-04-25T02:48:50;14.00;99.90
47660;DHT22;33403;43.608;1.458;2023-04-25T02:51:15;14.10;99.90
47660;DHT22;33403;43.608;1.458;2023-04-25T02:53:42;14.00;99.90
47660;DHT22;33403;43.608;1.458;2023-04-25T02:56:07;14.00;99.90
47660;DHT22;33403;43.608;1.458;2023-04-25T02:58:33;14.00;99.90
47660;DHT22;33403;43.608;1.458;2023-04-25T03:00:58;14.00;99.90
47660;DHT22;33403;43.608;1.458;2023-04-25T03:03:24;14.00;99.90
47660;DHT22;33403;43.608;1.458;2023-04-25T03:05:51;14.00;99.90
47660;DHT22;33403;43.608;1.458;2023-04-25T03:08:17;14.00;99.90
47660;DHT22;33403;43.608;1.458;2023-04-25T03:10:44;14.00;99.90
47660;DHT22;33403;43.608;1.458;2023-04-25T03:13:09;14.00;99.90
47660;DHT22;33403;43.608;1.458;2023-04-25T03:15:36;14.00;99.90
47660;DHT22;33403;43.608;1.458;2023-04-25T03:18:02;14.00;99.90
47660;DHT22;33403;43.608;1.458;2023-04-25T03:20:27;14.00;99.90
47660;DHT22;33403;43.608;1.458;2023-04-25T03:22:53;14.00;99.90
47660;DHT22;33403;43.608;1.458;2023-04-25T03:25:19;14.00;99.90
47660;DHT22;33403;43.608;1.458;2023-04-25T03:27:45;14.00;99.90
47660;DHT22;33403;43.608;1.458;2023-04-25T03:30:10;14.00;99.90
47660;DHT22;33403;43.608;1.458;2023-04-25T03:32:36;14.00;99.90
47660;DHT22;33403;43.608;1.458;2023-04-25T03:35:02;14.00;99.90
47660;DHT22;33403;43.608;1.458;2023-04-25T03:37:28;14.00;99.90
47660;DHT22;33403;43.608;1.458;2023-04-25T03:39:54;14.00;99.90
47660;DHT22;33403;43.608;1.458;2023-04-25T03:42:20;14.00;99.90
47660;DHT22;33403;43.608;1.458;2023-04-25T03:44:48;14.00;99.90
47660;DHT22;33403;43.608;1.458;2023-04-25T03:47:14;14.00;99.90
47660;DHT22;33403;43.608;1.458;2023-04-25T03:49:40;14.00;99.90
47660;DHT22;33403;43.608;1.458;2023-04-25T03:52:06;14.00;99.90
47660;DHT22;33403;43.608;1.458;2023-04-25T03:54:32;14.00;99.90
47660;DHT22;33403;43.608;1.458;2023-04-25T03:56:58;14.00;99.90
47660;DHT22;33403;43.608;1.458;2023-04-25T03:59:24;14.00;99.90
47660;DHT22;33403;43.608;1.458;2023-04-25T04:01:51;13.90;99.90
47660;DHT22;33403;43.608;1.458;2023-04-25T04:04:17;13.90;99.90
47660;DHT22;33403;43.608;1.458;2023-04-25T04:06:43;14.00;99.90
47660;DHT22;33403;43.608;1.458;2023-04-25T04:09:09;14.00;99.90
47660;DHT22;33403;43.608;1.458;2023-04-25T04:11:37;14.00;99.90
47660;DHT22;33403;43.608;1.458;2023-04-25T04:14:07;14.00;99.90
47660;DHT22;33403;43.608;1.458;2023-04-25T04:16:33;14.00;99.90
47660;DHT22;33403;43.608;1.458;2023-04-25T04:18:58;14.00;99.90
47660;DHT22;33403;43.608;1.458;2023-04-25T04:21:24;14.00;99.90
47660;DHT22;33403;43.608;1.458;2023-04-25T04:23:50;14.00;99.90
47660;DHT22;33403;43.608;1.458;2023-04-25T04:26:15;14.00;99.90
47660;DHT22;33403;43.608;1.458;2023-04-25T04:28:42;14.00;99.90
47660;DHT22;33403;43.608;1.458;2023-04-25T04:31:12;14.00;99.90
47660;DHT22;33403;43.608;1.458;2023-04-25T04:33:40;14.00;99.90
47660;DHT22;33403;43.608;1.458;2023-04-25T04:36:06;14.00;99.90
47660;DHT22;33403;43.608;1.458;2023-04-25T04:38:33;14.00;99.90
47660;DHT22;33403;43.608;1.458;2023-04-25T04:40:58;14.00;99.90
47660;DHT22;33403;43.608;1.458;2023-04-25T04:43:24;14.00;99.90
47660;DHT22;33403;43.608;1.458;2023-04-25T04:45:50;14.00;99.90
47660;DHT22;33403;43.608;1.458;2023-04-25T04:48:16;14.00;99.90
47660;DHT22;33403;43.608;1.458;2023-04-25T04:50:45;14.00;99.90
47660;DHT22;33403;43.608;1.458;2023-04-25T04:53:11;14.00;99.90
47660;DHT22;33403;43.608;1.458;2023-04-25T04:55:37;14.00;99.90
47660;DHT22;33403;43.608;1.458;2023-04-25T04:58:02;14.00;99.90
47660;DHT22;33403;43.608;1.458;2023-04-25T05:00:28;14.00;99.90
47660;DHT22;33403;43.608;1.458;2023-04-25T05:02:55;14.00;99.90
47660;DHT22;33403;43.608;1.458;2023-04-25T05:05:21;14.00;99.90
47660;DHT22;33403;43.608;1.458;2023-04-25T05:07:47;14.00;99.90
47660;DHT22;33403;43.608;1.458;2023-04-25T05:10:12;14.00;99.90
47660;DHT22;33403;43.608;1.458;2023-04-25T05:12:38;14.00;99.90
47660;DHT22;33403;43.608;1.458;2023-04-25T05:15:04;14.00;99.90
47660;DHT22;33403;43.608;1.458;2023-04-25T05:17:30;14.00;99.90
47660;DHT22;33403;43.608;1.458;2023-04-25T05:19:56;14.00;99.90
47660;DHT22;33403;43.608;1.458;2023-04-25T05:22:22;14.00;99.90
47660;DHT22;33403;43.608;1.458;2023-04-25T05:24:48;14.10;99.90
47660;DHT22;33403;43.608;1.458;2023-04-25T05:27:17;14.10;99.90
47660;DHT22;33403;43.608;1.458;2023-04-25T05:29:42;14.10;99.90
47660;DHT22;33403;43.608;1.458;2023-04-25T05:32:08;14.10;99.90
47660;DHT22;33403;43.608;1.458;2023-04-25T05:34:34;14.20;99.90
47660;DHT22;33403;43.608;1.458;2023-04-25T05:37:00;14.20;99.90
47660;DHT22;33403;43.608;1.458;2023-04-25T05:39:26;14.20;99.90
47660;DHT22;33403;43.608;1.458;2023-04-25T05:41:52;14.20;99.90
47660;DHT22;33403;43.608;1.458;2023-04-25T05:44:18;14.20;99.90
47660;DHT22;33403;43.608;1.458;2023-04-25T05:46:43;14.20;99.90
47660;DHT22;33403;43.608;1.458;2023-04-25T05:49:09;14.20;99.90
47660;DHT22;33403;43.608;1.458;2023-04-25T05:51:35;14.20;99.90
47660;DHT22;33403;43.608;1.458;2023-04-25T05:54:00;14.20;99.90
47660;DHT22;33403;43.608;1.458;2023-04-25T05:56:26;14.20;99.90
47660;DHT22;33403;43.608;1.458;2023-04-25T05:58:52;14.30;99.90
47660;DHT22;33403;43.608;1.458;2023-04-25T06:01:18;14.30;99.90
47660;DHT22;33403;43.608;1.458;2023-04-25T06:03:43;14.30;99.90
47660;DHT22;33403;43.608;1.458;2023-04-25T06:06:09;14.30;99.90
47660;DHT22;33403;43.608;1.458;2023-04-25T06:08:35;14.30;99.90
47660;DHT22;33403;43.608;1.458;2023-04-25T06:11:01;14.40;99.90
47660;DHT22;33403;43.608;1.458;2023-04-25T06:13:26;14.40;99.90
47660;DHT22;33403;43.608;1.458;2023-04-25T06:15:52;14.40;99.90
47660;DHT22;33403;43.608;1.458;2023-04-25T06:18:18;14.40;99.90
47660;DHT22;33403;43.608;1.458;2023-04-25T06:20:43;14.40;99.90
47660;DHT22;33403;43.608;1.458;2023-04-25T06:23:09;14.40;99.90
47660;DHT22;33403;43.608;1.458;2023-04-25T06:25:35;14.40;99.90
47660;DHT22;33403;43.608;1.458;2023-04-25T06:28:00;14.40;99.90
47660;DHT22;33403;43.608;1.458;2023-04-25T06:30:26;14.50;99.90
47660;DHT22;33403;43.608;1.458;2023-04-25T06:32:52;14.50;99.90
47660;DHT22;33403;43.608;1.458;2023-04-25T06:35:18;14.70;99.90
47660;DHT22;33403;43.608;1.458;2023-04-25T06:37:44;14.80;99.90
47660;DHT22;33403;43.608;1.458;2023-04-25T06:40:10;14.90;99.90
47660;DHT22;33403;43.608;1.458;2023-04-25T06:42:36;14.90;99.90
47660;DHT22;33403;43.608;1.458;2023-04-25T06:45:02;15.00;99.90
47660;DHT22;33403;43.608;1.458;2023-04-25T06:47:28;15.10;99.90
47660;DHT22;33403;43.608;1.458;2023-04-25T06:49:55;15.20;99.90
47660;DHT22;33403;43.608;1.458;2023-04-25T06:52:20;15.30;99.90
47660;DHT22;33403;43.608;1.458;2023-04-25T06:54:46;15.30;99.90
47660;DHT22;33403;43.608;1.458;2023-04-25T06:57:12;15.40;99.90
47660;DHT22;33403;43.608;1.458;2023-04-25T06:59:38;15.30;99.90
47660;DHT22;33403;43.608;1.458;2023-04-25T07:02:03;15.30;99.90
47660;DHT22;33403;43.608;1.458;2023-04-25T07:04:29;15.20;99.90
47660;DHT22;33403;43.608;1.458;2023-04-25T07:06:56;15.20;99.90
47660;DHT22;33403;43.608;1.458;2023-04-25T07:09:22;15.10;99.90
47660;DHT22;33403;43.608;1.458;2023-04-25T07:11:47;15.10;99.90
47660;DHT22;33403;43.608;1.458;2023-04-25T07:14:13;15.10;99.90
47660;DHT22;33403;43.608;1.458;2023-04-25T07:16:39;15.00;99.90
47660;DHT22;33403;43.608;1.458;2023-04-25T07:19:05;15.00;99.90
47660;DHT22;33403;43.608;1.458;2023-04-25T07:21:31;15.00;99.90
47660;DHT22;33403;43.608;1.458;2023-04-25T07:23:57;14.90;99.90
47660;DHT22;33403;43.608;1.458;2023-04-25T07:26:22;14.80;99.90
47660;DHT22;33403;43.608;1.458;2023-04-25T07:28:48;14.60;99.90
47660;DHT22;33403;43.608;1.458;2023-04-25T07:31:19;14.40;99.90
47660;DHT22;33403;43.608;1.458;2023-04-25T07:33:45;14.30;99.90
47660;DHT22;33403;43.608;1.458;2023-04-25T07:36:11;14.30;99.90
47660;DHT22;33403;43.608;1.458;2023-04-25T07:38:38;14.10;99.90
47660;DHT22;33403;43.608;1.458;2023-04-25T07:41:04;14.10;99.90
47660;DHT22;33403;43.608;1.458;2023-04-25T07:43:29;14.10;99.90
47660;DHT22;33403;43.608;1.458;2023-04-25T07:45:56;14.20;99.90
47660;DHT22;33403;43.608;1.458;2023-04-25T07:48:22;14.20;99.90
47660;DHT22;33403;43.608;1.458;2023-04-25T07:50:47;14.10;99.90
47660;DHT22;33403;43.608;1.458;2023-04-25T07:53:13;14.00;99.90
47660;DHT22;33403;43.608;1.458;2023-04-25T07:55:39;14.00;99.90
47660;DHT22;33403;43.608;1.458;2023-04-25T07:58:08;14.00;99.90
47660;DHT22;33403;43.608;1.458;2023-04-25T08:00:34;13.90;99.90
47660;DHT22;33403;43.608;1.458;2023-04-25T08:03:00;13.90;99.90
47660;DHT22;33403;43.608;1.458;2023-04-25T08:05:25;13.90;99.90
47660;DHT22;33403;43.608;1.458;2023-04-25T08:07:51;13.90;99.90
47660;DHT22;33403;43.608;1.458;2023-04-25T08:10:17;13.80;99.90
47660;DHT22;33403;43.608;1.458;2023-04-25T08:12:43;13.80;99.90
47660;DHT22;33403;43.608;1.458;2023-04-25T08:15:09;13.80;99.90
47660;DHT22;33403;43.608;1.458;2023-04-25T08:17:35;13.70;99.90
47660;DHT22;33403;43.608;1.458;2023-04-25T08:20:01;13.70;99.90
47660;DHT22;33403;43.608;1.458;2023-04-25T08:22:29;13.70;99.90
47660;DHT22;33403;43.608;1.458;2023-04-25T08:24:55;13.90;99.90
47660;DHT22;33403;43.608;1.458;2023-04-25T08:27:20;13.90;99.90
47660;DHT22;33403;43.608;1.458;2023-04-25T08:29:46;14.00;99.90
47660;DHT22;33403;43.608;1.458;2023-04-25T08:32:12;14.10;99.90
47660;DHT22;33403;43.608;1.458;2023-04-25T08:34:38;14.20;99.90
47660;DHT22;33403;43.608;1.458;2023-04-25T08:37:07;14.30;99.90
47660;DHT22;33403;43.608;1.458;2023-04-25T08:39:35;14.20;99.90
47660;DHT22;33403;43.608;1.458;2023-04-25T08:42:03;14.20;99.90
47660;DHT22;33403;43.608;1.458;2023-04-25T08:44:33;14.20;99.90
47660;DHT22;33403;43.608;1.458;2023-04-25T08:47:04;14.10;99.90
47660;DHT22;33403;43.608;1.458;2023-04-25T08:49:34;14.20;99.90
47660;DHT22;33403;43.608;1.458;2023-04-25T08:52:01;14.20;99.90
47660;DHT22;33403;43.608;1.458;2023-04-25T08:54:30;14.10;99.90
47660;DHT22;33403;43.608;1.458;2023-04-25T08:56:57;14.20;99.90
47660;DHT22;33403;43.608;1.458;2023-04-25T08:59:24;14.10;99.90
47660;DHT22;33403;43.608;1.458;2023-04-25T09:01:50;14.10;99.90
47660;DHT22;33403;43.608;1.458;2023-04-25T09:04:15;14.10;99.90
47660;DHT22;33403;43.608;1.458;2023-04-25T09:06:41;14.20;99.90
47660;DHT22;33403;43.608;1.458;2023-04-25T09:09:08;14.30;99.90
47660;DHT22;33403;43.608;1.458;2023-04-25T09:11:36;14.40;99.90
47660;DHT22;33403;43.608;1.458;2023-04-25T09:14:12;14.40;99.90
47660;DHT22;33403;43.608;1.458;2023-04-25T09:17:05;14.40;99.90
47660;DHT22;33403;43.608;1.458;2023-04-25T09:19:37;14.40;99.90
47660;DHT22;33403;43.608;1.458;2023-04-25T09:22:05;14.50;99.90
47660;DHT22;33403;43.608;1.458;2023-04-25T09:27:07;14.80;99.90
47660;DHT22;33403;43.608;1.458;2023-04-25T09:29:37;14.80;99.90
47660;DHT22;33403;43.608;1.458;2023-04-25T09:32:19;14.70;99.90
47660;DHT22;33403;43.608;1.458;2023-04-25T09:34:52;14.60;99.90
47660;DHT22;33403;43.608;1.458;2023-04-25T09:37:23;14.50;99.90
47660;DHT22;33403;43.608;1.458;2023-04-25T09:39:52;14.50;99.90
47660;DHT22;33403;43.608;1.458;2023-04-25T09:42:17;14.30;99.90
47660;DHT22;33403;43.608;1.458;2023-04-25T09:44:44;14.30;99.90
47660;DHT22;33403;43.608;1.458;2023-04-25T09:47:12;14.20;99.90
47660;DHT22;33403;43.608;1.458;2023-04-25T09:49:42;14.10;99.90
47660;DHT22;33403;43.608;1.458;2023-04-25T09:52:08;14.10;99.90
47660;DHT22;33403;43.608;1.458;2023-04-25T09:54:34;14.10;99.90
47660;DHT22;33403;43.608;1.458;2023-04-25T09:57:29;14.10;99.90
47660;DHT22;33403;43.608;1.458;2023-04-25T09:59:55;14.20;99.90
47660;DHT22;33403;43.608;1.458;2023-04-25T10:02:26;14.10;99.90
47660;DHT22;33403;43.608;1.458;2023-04-25T10:04:53;14.10;99.90
47660;DHT22;33403;43.608;1.458;2023-04-25T10:07:22;14.10;99.90
47660;DHT22;33403;43.608;1.458;2023-04-25T10:09:56;14.20;99.90
47660;DHT22;33403;43.608;1.458;2023-04-25T10:12:25;14.20;99.90
47660;DHT22;33403;43.608;1.458;2023-04-25T10:14:52;14.20;99.90
47660;DHT22;33403;43.608;1.458;2023-04-25T10:17:20;14.20;99.90
47660;DHT22;33403;43.608;1.458;2023-04-25T10:19:49;14.20;99.90
47660;DHT22;33403;43.608;1.458;2023-04-25T10:22:39;14.20;99.90
47660;DHT22;33403;43.608;1.458;2023-04-25T10:25:07;14.30;99.90
47660;DHT22;33403;43.608;1.458;2023-04-25T10:27:34;14.50;99.90
47660;DHT22;33403;43.608;1.458;2023-04-25T10:30:11;14.70;99.90
47660;DHT22;33403;43.608;1.458;2023-04-25T10:32:41;14.70;99.90
47660;DHT22;33403;43.608;1.458;2023-04-25T10:37:37;14.70;99.90
47660;DHT22;33403;43.608;1.458;2023-04-25T10:40:10;14.60;99.90
47660;DHT22;33403;43.608;1.458;2023-04-25T10:42:36;14.60;99.90
47660;DHT22;33403;43.608;1.458;2023-04-25T10:45:05;14.60;99.90
47660;DHT22;33403;43.608;1.458;2023-04-25T10:47:35;14.50;99.90
47660;DHT22;33403;43.608;1.458;2023-04-25T10:50:07;14.50;99.90
47660;DHT22;33403;43.608;1.458;2023-04-25T10:52:33;14.50;99.90
47660;DHT22;33403;43.608;1.458;2023-04-25T10:54:59;14.50;99.90
47660;DHT22;33403;43.608;1.458;2023-04-25T10:57:44;14.60;99.90
47660;DHT22;33403;43.608;1.458;2023-04-25T11:00:20;14.70;99.90
47660;DHT22;33403;43.608;1.458;2023-04-25T11:03:07;14.80;99.90
47660;DHT22;33403;43.608;1.458;2023-04-25T11:05:35;14.80;99.90
47660;DHT22;33403;43.608;1.458;2023-04-25T11:08:02;14.80;99.90
47660;DHT22;33403;43.608;1.458;2023-04-25T11:10:30;14.90;99.90
47660;DHT22;33403;43.608;1.458;2023-04-25T11:13:00;14.90;99.90
47660;DHT22;33403;43.608;1.458;2023-04-25T11:15:26;14.90;99.90
47660;DHT22;33403;43.608;1.458;2023-04-25T11:17:52;14.90;99.90
47660;DHT22;33403;43.608;1.458;2023-04-25T11:20:18;14.90;99.90
47660;DHT22;33403;43.608;1.458;2023-04-25T11:22:45;15.10;99.90
47660;DHT22;33403;43.608;1.458;2023-04-25T11:25:12;15.30;99.90
47660;DHT22;33403;43.608;1.458;2023-04-25T11:27:52;15.50;99.90
47660;DHT22;33403;43.608;1.458;2023-04-25T11:30:19;15.60;99.90
47660;DHT22;33403;43.608;1.458;2023-04-25T11:32:45;15.70;99.90
47660;DHT22;33403;43.608;1.458;2023-04-25T11:35:12;15.80;99.90
47660;DHT22;33403;43.608;1.458;2023-04-25T11:37:41;15.90;99.90
47660;DHT22;33403;43.608;1.458;2023-04-25T11:40:08;16.20;99.90
47660;DHT22;33403;43.608;1.458;2023-04-25T11:42:37;16.10;99.90
47660;DHT22;33403;43.608;1.458;2023-04-25T11:45:03;15.90;99.90
47660;DHT22;33403;43.608;1.458;2023-04-25T11:47:30;15.70;99.90
47660;DHT22;33403;43.608;1.458;2023-04-25T11:50:04;15.60;99.90
47660;DHT22;33403;43.608;1.458;2023-04-25T11:52:42;15.70;99.90
47660;DHT22;33403;43.608;1.458;2023-04-25T11:55:15;15.80;99.90
47660;DHT22;33403;43.608;1.458;2023-04-25T11:57:42;15.90;99.90
47660;DHT22;33403;43.608;1.458;2023-04-25T12:00:13;16.00;99.90
47660;DHT22;33403;43.608;1.458;2023-04-25T12:02:41;16.10;99.90
47660;DHT22;33403;43.608;1.458;2023-04-25T12:05:08;16.10;99.90
47660;DHT22;33403;43.608;1.458;2023-04-25T12:07:34;16.10;99.90
47660;DHT22;33403;43.608;1.458;2023-04-25T12:10:08;15.90;99.90
47660;DHT22;33403;43.608;1.458;2023-04-25T12:12:35;15.80;99.90
47660;DHT22;33403;43.608;1.458;2023-04-25T12:15:11;15.80;99.90
47660;DHT22;33403;43.608;1.458;2023-04-25T12:17:38;15.80;99.90
47660;DHT22;33403;43.608;1.458;2023-04-25T12:20:17;15.90;99.90
47660;DHT22;33403;43.608;1.458;2023-04-25T12:22:44;16.00;99.90
47660;DHT22;33403;43.608;1.458;2023-04-25T12:25:12;16.10;99.90
47660;DHT22;33403;43.608;1.458;2023-04-25T12:27:39;16.20;99.90
47660;DHT22;33403;43.608;1.458;2023-04-25T12:30:08;16.30;99.90
47660;DHT22;33403;43.608;1.458;2023-04-25T12:32:34;16.20;99.90
47660;DHT22;33403;43.608;1.458;2023-04-25T12:35:01;16.20;99.90
47660;DHT22;33403;43.608;1.458;2023-04-25T12:37:28;16.20;99.90
47660;DHT22;33403;43.608;1.458;2023-04-25T12:39:53;16.20;99.90
47660;DHT22;33403;43.608;1.458;2023-04-25T12:42:19;16.20;99.90
47660;DHT22;33403;43.608;1.458;2023-04-25T12:44:45;16.20;99.90
47660;DHT22;33403;43.608;1.458;2023-04-25T12:47:11;16.20;99.90
47660;DHT22;33403;43.608;1.458;2023-04-25T12:49:37;16.20;99.90
47660;DHT22;33403;43.608;1.458;2023-04-25T12:52:03;16.20;99.90
47660;DHT22;33403;43.608;1.458;2023-04-25T12:54:28;16.00;99.90
47660;DHT22;33403;43.608;1.458;2023-04-25T12:56:54;15.90;99.90
47660;DHT22;33403;43.608;1.458;2023-04-25T12:59:20;15.90;99.90
47660;DHT22;33403;43.608;1.458;2023-04-25T13:01:46;15.80;99.90
47660;DHT22;33403;43.608;1.458;2023-04-25T13:04:12;15.70;99.90
47660;DHT22;33403;43.608;1.458;2023-04-25T13:06:38;15.60;99.90
47660;DHT22;33403;43.608;1.458;2023-04-25T13:09:03;15.50;99.90
47660;DHT22;33403;43.608;1.458;2023-04-25T13:11:29;15.50;99.90
47660;DHT22;33403;43.608;1.458;2023-04-25T13:13:56;15.50;99.90
47660;DHT22;33403;43.608;1.458;2023-04-25T13:16:21;15.40;99.90
47660;DHT22;33403;43.608;1.458;2023-04-25T13:18:48;15.40;99.90
47660;DHT22;33403;43.608;1.458;2023-04-25T13:21:13;15.40;99.90
47660;DHT22;33403;43.608;1.458;2023-04-25T13:23:39;15.40;99.90
47660;DHT22;33403;43.608;1.458;2023-04-25T13:26:06;15.50;99.90
47660;DHT22;33403;43.608;1.458;2023-04-25T13:28:31;15.60;99.90
47660;DHT22;33403;43.608;1.458;2023-04-25T13:30:57;15.80;99.90
47660;DHT22;33403;43.608;1.458;2023-04-25T13:33:23;15.70;99.90
47660;DHT22;33403;43.608;1.458;2023-04-25T13:35:49;15.50;99.90
47660;DHT22;33403;43.608;1.458;2023-04-25T13:38:25;15.40;99.90
47660;DHT22;33403;43.608;1.458;2023-04-25T13:40:51;15.50;99.90
47660;DHT22;33403;43.608;1.458;2023-04-25T13:43:20;15.70;99.90
47660;DHT22;33403;43.608;1.458;2023-04-25T13:45:47;15.90;99.90
47660;DHT22;33403;43.608;1.458;2023-04-25T13:48:13;16.00;99.90
47660;DHT22;33403;43.608;1.458;2023-04-25T13:50:39;16.10;99.90
47660;DHT22;33403;43.608;1.458;2023-04-25T13:53:05;16.20;99.90
47660;DHT22;33403;43.608;1.458;2023-04-25T13:55:31;16.30;99.90
47660;DHT22;33403;43.608;1.458;2023-04-25T13:57:56;16.30;99.90
47660;DHT22;33403;43.608;1.458;2023-04-25T14:00:22;16.20;99.90
47660;DHT22;33403;43.608;1.458;2023-04-25T14:02:48;16.00;99.90
47660;DHT22;33403;43.608;1.458;2023-04-25T14:05:14;15.90;99.90
47660;DHT22;33403;43.608;1.458;2023-04-25T14:07:40;15.80;99.90
47660;DHT22;33403;43.608;1.458;2023-04-25T14:10:06;15.80;99.90
47660;DHT22;33403;43.608;1.458;2023-04-25T14:12:32;15.70;99.90
47660;DHT22;33403;43.608;1.458;2023-04-25T14:14:58;15.60;99.90
47660;DHT22;33403;43.608;1.458;2023-04-25T14:17:24;15.60;99.90
47660;DHT22;33403;43.608;1.458;2023-04-25T14:19:50;15.50;99.90
47660;DHT22;33403;43.608;1.458;2023-04-25T14:22:15;15.50;99.90
47660;DHT22;33403;43.608;1.458;2023-04-25T14:24:41;15.40;99.90
47660;DHT22;33403;43.608;1.458;2023-04-25T14:27:07;15.50;99.90
47660;DHT22;33403;43.608;1.458;2023-04-25T14:29:33;15.40;99.90
47660;DHT22;33403;43.608;1.458;2023-04-25T14:31:59;15.50;99.90
47660;DHT22;33403;43.608;1.458;2023-04-25T14:34:25;15.50;99.90
47660;DHT22;33403;43.608;1.458;2023-04-25T14:36:51;15.70;99.90
47660;DHT22;33403;43.608;1.458;2023-04-25T14:39:18;15.80;99.90
47660;DHT22;33403;43.608;1.458;2023-04-25T14:41:44;15.80;99.90
47660;DHT22;33403;43.608;1.458;2023-04-25T14:44:09;15.80;99.90
47660;DHT22;33403;43.608;1.458;2023-04-25T14:46:35;15.70;99.90
47660;DHT22;33403;43.608;1.458;2023-04-25T14:49:02;15.90;99.90
47660;DHT22;33403;43.608;1.458;2023-04-25T14:51:27;16.00;99.90
47660;DHT22;33403;43.608;1.458;2023-04-25T14:53:53;15.80;99.90
47660;DHT22;33403;43.608;1.458;2023-04-25T14:56:18;15.80;99.90
47660;DHT22;33403;43.608;1.458;2023-04-25T14:58:44;15.70;99.90
47660;DHT22;33403;43.608;1.458;2023-04-25T15:01:11;15.60;99.90
47660;DHT22;33403;43.608;1.458;2023-04-25T15:03:38;15.50;99.90
47660;DHT22;33403;43.608;1.458;2023-04-25T15:06:05;15.40;99.90
47660;DHT22;33403;43.608;1.458;2023-04-25T15:08:31;15.30;99.90
47660;DHT22;33403;43.608;1.458;2023-04-25T15:10:58;15.20;99.90
47660;DHT22;33403;43.608;1.458;2023-04-25T15:13:23;15.20;99.90
47660;DHT22;33403;43.608;1.458;2023-04-25T15:15:50;15.10;99.90
47660;DHT22;33403;43.608;1.458;2023-04-25T15:18:19;15.10;99.90
47660;DHT22;33403;43.608;1.458;2023-04-25T15:20:47;15.10;99.90
47660;DHT22;33403;43.608;1.458;2023-04-25T15:23:12;15.10;99.90
47660;DHT22;33403;43.608;1.458;2023-04-25T15:25:38;15.00;99.90
47660;DHT22;33403;43.608;1.458;2023-04-25T15:28:03;15.00;99.90
47660;DHT22;33403;43.608;1.458;2023-04-25T15:30:30;15.00;99.90
47660;DHT22;33403;43.608;1.458;2023-04-25T15:32:55;15.00;99.90